sensor_id;sensor_type;location;lat;lon;timestamp;P1;durP1;ratioP1;P2;durP2;ratioP2
950;SDS011;462;48.758;9.256;2022-12-10T00:06:02;40.83;;;31.17;;
950;SDS011;462;48.758;9.256;2022-12-10T00:14:07;42.23;;;29.30;;
950;SDS011;462;48.758;9.256;2022-12-10T00:22:09;41.10;;;30.47;;
950;SDS011;462;48.758;9.256;2022-12-10T00:30:13;37.97;;;27.57;;
950;SDS011;462;48.758;9.256;2022-12-10T00:38:16;41.93;;;29.93;;
950;SDS011;462;48.758;9.256;2022-12-10T00:46:20;39.87;;;28.13;;
950;SDS011;462;48.758;9.256;2022-12-10T00:54:22;36.67;;;26.77;;
950;SDS011;462;48.758;9.256;2022-12-10T01:02:26;38.77;;;29.33;;
950;SDS011;462;48.758;9.256;2022-12-10T01:10:28;40.70;;;29.10;;
950;SDS011;462;48.758;9.256;2022-12-10T01:18:32;38.70;;;29.23;;
950;SDS011;462;48.758;9.256;2022-12-10T01:26:36;41.90;;;29.40;;
950;SDS011;462;48.758;9.256;2022-12-10T01:34:40;38.40;;;27.53;;
950;SDS011;462;48.758;9.256;2022-12-10T01:42:42;37.47;;;26.80;;
950;SDS011;462;48.758;9.256;2022-12-10T01:50:49;36.13;;;26.17;;
950;SDS011;462;48.758;9.256;2022-12-10T01:58:54;36.30;;;25.70;;
950;SDS011;462;48.758;9.256;2022-12-10T02:06:59;35.90;;;27.10;;
950;SDS011;462;48.758;9.256;2022-12-10T02:15:04;39.10;;;29.03;;
950;SDS011;462;48.758;9.256;2022-12-10T02:23:12;35.90;;;24.43;;
950;SDS011;462;48.758;9.256;2022-12-10T02:31:20;35.20;;;26.60;;
950;SDS011;462;48.758;9.256;2022-12-10T02:39:25;34.70;;;26.50;;
950;SDS011;462;48.758;9.256;2022-12-10T02:47:33;32.07;;;26.17;;
950;SDS011;462;48.758;9.256;2022-12-10T02:55:41;35.20;;;24.73;;
950;SDS011;462;48.758;9.256;2022-12-10T03:03:54;37.50;;;26.93;;
950;SDS011;462;48.758;9.256;2022-12-10T03:12:01;36.90;;;24.60;;
950;SDS011;462;48.758;9.256;2022-12-10T03:20:10;30.70;;;23.43;;
950;SDS011;462;48.758;9.256;2022-12-10T03:28:14;34.10;;;26.00;;
950;SDS011;462;48.758;9.256;2022-12-10T03:36:19;34.77;;;25.33;;
950;SDS011;462;48.758;9.256;2022-12-10T03:44:29;34.23;;;26.30;;
950;SDS011;462;48.758;9.256;2022-12-10T03:52:34;33.53;;;25.40;;
950;SDS011;462;48.758;9.256;2022-12-10T04:00:36;36.33;;;26.73;;
950;SDS011;462;48.758;9.256;2022-12-10T04:08:40;32.10;;;24.17;;
950;SDS011;462;48.758;9.256;2022-12-10T04:16:43;33.60;;;23.40;;
950;SDS011;462;48.758;9.256;2022-12-10T04:24:46;32.30;;;25.20;;
950;SDS011;462;48.758;9.256;2022-12-10T04:33:06;33.17;;;24.83;;
950;SDS011;462;48.758;9.256;2022-12-10T04:41:10;32.73;;;24.23;;
950;SDS011;462;48.758;9.256;2022-12-10T04:49:15;30.37;;;23.07;;
950;SDS011;462;48.758;9.256;2022-12-10T04:57:19;29.00;;;23.67;;
950;SDS011;462;48.758;9.256;2022-12-10T05:05:22;36.33;;;24.27;;
950;SDS011;462;48.758;9.256;2022-12-10T05:13:25;33.43;;;25.20;;
950;SDS011;462;48.758;9.256;2022-12-10T05:21:28;35.50;;;25.90;;
950;SDS011;462;48.758;9.256;2022-12-10T05:29:46;33.03;;;25.20;;
950;SDS011;462;48.758;9.256;2022-12-10T05:37:49;34.90;;;24.80;;
950;SDS011;462;48.758;9.256;2022-12-10T05:45:52;33.57;;;25.73;;
950;SDS011;462;48.758;9.256;2022-12-10T05:53:56;33.50;;;24.30;;
950;SDS011;462;48.758;9.256;2022-12-10T06:02:00;32.10;;;24.33;;
950;SDS011;462;48.758;9.256;2022-12-10T06:10:03;31.90;;;23.53;;
950;SDS011;462;48.758;9.256;2022-12-10T06:18:07;30.07;;;22.27;;
950;SDS011;462;48.758;9.256;2022-12-10T06:26:10;34.60;;;25.10;;
950;SDS011;462;48.758;9.256;2022-12-10T06:34:15;33.60;;;24.23;;
950;SDS011;462;48.758;9.256;2022-12-10T06:42:17;30.40;;;23.03;;
950;SDS011;462;48.758;9.256;2022-12-10T06:50:21;34.13;;;25.80;;
950;SDS011;462;48.758;9.256;2022-12-10T06:58:24;37.60;;;27.30;;
950;SDS011;462;48.758;9.256;2022-12-10T07:06:30;33.80;;;24.87;;
950;SDS011;462;48.758;9.256;2022-12-10T07:14:33;34.53;;;24.53;;
950;SDS011;462;48.758;9.256;2022-12-10T07:22:37;34.93;;;26.07;;
950;SDS011;462;48.758;9.256;2022-12-10T07:30:39;38.23;;;26.10;;
950;SDS011;462;48.758;9.256;2022-12-10T07:38:43;35.80;;;25.87;;
950;SDS011;462;48.758;9.256;2022-12-10T07:46:46;31.10;;;23.40;;
950;SDS011;462;48.758;9.256;2022-12-10T07:54:50;34.67;;;25.73;;
950;SDS011;462;48.758;9.256;2022-12-10T08:02:53;34.37;;;25.60;;
950;SDS011;462;48.758;9.256;2022-12-10T08:10:59;31.73;;;23.50;;
950;SDS011;462;48.758;9.256;2022-12-10T08:19:02;31.93;;;24.67;;
950;SDS011;462;48.758;9.256;2022-12-10T08:27:06;35.10;;;25.70;;
950;SDS011;462;48.758;9.256;2022-12-10T08:35:08;31.23;;;22.80;;
950;SDS011;462;48.758;9.256;2022-12-10T08:43:13;32.10;;;23.70;;
950;SDS011;462;48.758;9.256;2022-12-10T08:51:16;32.50;;;23.93;;
950;SDS011;462;48.758;9.256;2022-12-10T08:59:21;37.90;;;23.47;;
950;SDS011;462;48.758;9.256;2022-12-10T09:07:23;31.13;;;22.93;;
950;SDS011;462;48.758;9.256;2022-12-10T09:15:27;32.43;;;23.70;;
950;SDS011;462;48.758;9.256;2022-12-10T09:23:29;30.40;;;22.27;;
950;SDS011;462;48.758;9.256;2022-12-10T09:31:33;28.47;;;22.03;;
950;SDS011;462;48.758;9.256;2022-12-10T09:39:36;33.80;;;23.93;;
950;SDS011;462;48.758;9.256;2022-12-10T09:47:43;32.73;;;26.30;;
950;SDS011;462;48.758;9.256;2022-12-10T09:55:48;27.77;;;21.70;;
950;SDS011;462;48.758;9.256;2022-12-10T10:03:53;41.90;;;23.97;;
950;SDS011;462;48.758;9.256;2022-12-10T10:11:56;35.37;;;22.90;;
950;SDS011;462;48.758;9.256;2022-12-10T10:20:00;34.57;;;24.23;;
950;SDS011;462;48.758;9.256;2022-12-10T10:28:02;34.17;;;25.40;;
950;SDS011;462;48.758;9.256;2022-12-10T10:36:07;29.30;;;21.90;;
950;SDS011;462;48.758;9.256;2022-12-10T10:44:13;31.50;;;21.77;;
950;SDS011;462;48.758;9.256;2022-12-10T10:52:18;28.23;;;20.77;;
950;SDS011;462;48.758;9.256;2022-12-10T11:00:21;29.90;;;22.90;;
950;SDS011;462;48.758;9.256;2022-12-10T11:08:25;32.27;;;22.93;;
950;SDS011;462;48.758;9.256;2022-12-10T11:16:30;28.47;;;22.40;;
950;SDS011;462;48.758;9.256;2022-12-10T11:24:34;37.20;;;25.00;;
950;SDS011;462;48.758;9.256;2022-12-10T11:32:46;34.73;;;25.63;;
950;SDS011;462;48.758;9.256;2022-12-10T11:40:58;31.50;;;23.53;;
950;SDS011;462;48.758;9.256;2022-12-10T11:49:10;30.30;;;23.60;;
950;SDS011;462;48.758;9.256;2022-12-10T11:57:22;31.70;;;23.30;;
950;SDS011;462;48.758;9.256;2022-12-10T12:05:36;31.63;;;22.97;;
950;SDS011;462;48.758;9.256;2022-12-10T12:13:48;38.97;;;29.40;;
950;SDS011;462;48.758;9.256;2022-12-10T12:21:54;31.47;;;22.50;;
950;SDS011;462;48.758;9.256;2022-12-10T12:30:00;30.83;;;22.13;;
950;SDS011;462;48.758;9.256;2022-12-10T12:38:06;30.50;;;22.03;;
950;SDS011;462;48.758;9.256;2022-12-10T12:46:25;28.60;;;20.50;;
950;SDS011;462;48.758;9.256;2022-12-10T12:54:31;25.73;;;18.70;;
950;SDS011;462;48.758;9.256;2022-12-10T13:02:48;21.33;;;18.33;;
950;SDS011;462;48.758;9.256;2022-12-10T13:10:57;28.53;;;19.87;;
950;SDS011;462;48.758;9.256;2022-12-10T13:27:29;27.90;;;20.03;;
950;SDS011;462;48.758;9.256;2022-12-10T13:35:41;25.83;;;19.03;;
950;SDS011;462;48.758;9.256;2022-12-10T13:43:54;24.10;;;19.00;;
950;SDS011;462;48.758;9.256;2022-12-10T13:52:17;25.90;;;19.63;;
950;SDS011;462;48.758;9.256;2022-12-10T14:00:28;27.23;;;18.53;;
950;SDS011;462;48.758;9.256;2022-12-10T14:08:35;28.03;;;21.90;;
950;SDS011;462;48.758;9.256;2022-12-10T14:16:39;29.03;;;20.80;;
950;SDS011;462;48.758;9.256;2022-12-10T14:24:44;28.33;;;21.03;;
950;SDS011;462;48.758;9.256;2022-12-10T14:32:47;33.50;;;21.33;;
950;SDS011;462;48.758;9.256;2022-12-10T14:40:52;30.47;;;21.97;;
950;SDS011;462;48.758;9.256;2022-12-10T14:48:55;35.37;;;23.47;;
950;SDS011;462;48.758;9.256;2022-12-10T14:57:00;34.00;;;22.00;;
950;SDS011;462;48.758;9.256;2022-12-10T15:05:09;28.73;;;21.33;;
950;SDS011;462;48.758;9.256;2022-12-10T15:13:17;32.20;;;20.83;;
950;SDS011;462;48.758;9.256;2022-12-10T15:21:23;27.13;;;19.83;;
950;SDS011;462;48.758;9.256;2022-12-10T15:29:34;28.57;;;19.40;;
950;SDS011;462;48.758;9.256;2022-12-10T15:37:37;32.00;;;20.20;;
950;SDS011;462;48.758;9.256;2022-12-10T15:45:42;31.00;;;22.20;;
950;SDS011;462;48.758;9.256;2022-12-10T15:53:45;27.53;;;19.90;;
950;SDS011;462;48.758;9.256;2022-12-10T16:01:48;33.80;;;21.80;;
950;SDS011;462;48.758;9.256;2022-12-10T16:09:51;30.43;;;22.40;;
950;SDS011;462;48.758;9.256;2022-12-10T16:17:55;28.63;;;20.23;;
950;SDS011;462;48.758;9.256;2022-12-10T16:25:58;24.33;;;18.43;;
950;SDS011;462;48.758;9.256;2022-12-10T16:34:02;25.60;;;17.50;;
950;SDS011;462;48.758;9.256;2022-12-10T16:42:04;23.77;;;18.30;;
950;SDS011;462;48.758;9.256;2022-12-10T16:50:11;29.07;;;19.40;;
950;SDS011;462;48.758;9.256;2022-12-10T16:58:14;26.23;;;19.10;;
950;SDS011;462;48.758;9.256;2022-12-10T17:06:19;26.47;;;18.60;;
950;SDS011;462;48.758;9.256;2022-12-10T17:14:22;28.00;;;20.43;;
950;SDS011;462;48.758;9.256;2022-12-10T17:22:27;26.43;;;18.60;;
950;SDS011;462;48.758;9.256;2022-12-10T17:30:30;28.57;;;19.07;;
950;SDS011;462;48.758;9.256;2022-12-10T17:38:34;27.57;;;20.03;;
950;SDS011;462;48.758;9.256;2022-12-10T17:46:36;22.37;;;16.87;;
950;SDS011;462;48.758;9.256;2022-12-10T17:54:41;30.93;;;20.40;;
950;SDS011;462;48.758;9.256;2022-12-10T18:02:43;22.10;;;15.90;;
950;SDS011;462;48.758;9.256;2022-12-10T18:10:47;23.10;;;17.43;;
950;SDS011;462;48.758;9.256;2022-12-10T18:18:51;26.90;;;19.87;;
950;SDS011;462;48.758;9.256;2022-12-10T18:26:54;26.87;;;19.90;;
950;SDS011;462;48.758;9.256;2022-12-10T18:34:58;28.70;;;20.33;;
950;SDS011;462;48.758;9.256;2022-12-10T18:43:02;30.07;;;20.63;;
950;SDS011;462;48.758;9.256;2022-12-10T18:51:04;31.50;;;20.57;;
950;SDS011;462;48.758;9.256;2022-12-10T18:59:12;36.77;;;25.20;;
950;SDS011;462;48.758;9.256;2022-12-10T19:07:17;30.43;;;23.30;;
950;SDS011;462;48.758;9.256;2022-12-10T19:15:20;28.07;;;21.93;;
950;SDS011;462;48.758;9.256;2022-12-10T19:23:23;29.70;;;21.30;;
950;SDS011;462;48.758;9.256;2022-12-10T19:31:27;26.30;;;19.67;;
950;SDS011;462;48.758;9.256;2022-12-10T19:39:30;25.27;;;19.83;;
950;SDS011;462;48.758;9.256;2022-12-10T19:47:36;32.27;;;21.33;;
950;SDS011;462;48.758;9.256;2022-12-10T19:55:38;29.10;;;20.10;;
950;SDS011;462;48.758;9.256;2022-12-10T20:03:43;27.07;;;21.03;;
950;SDS011;462;48.758;9.256;2022-12-10T20:11:45;27.80;;;20.10;;
950;SDS011;462;48.758;9.256;2022-12-10T20:19:50;32.87;;;23.27;;
950;SDS011;462;48.758;9.256;2022-12-10T20:27:52;30.90;;;21.03;;
950;SDS011;462;48.758;9.256;2022-12-10T20:35:56;30.50;;;21.30;;
950;SDS011;462;48.758;9.256;2022-12-10T20:44:00;28.40;;;19.50;;
950;SDS011;462;48.758;9.256;2022-12-10T20:52:04;31.00;;;21.30;;
950;SDS011;462;48.758;9.256;2022-12-10T21:00:09;29.40;;;21.73;;
950;SDS011;462;48.758;9.256;2022-12-10T21:08:18;27.93;;;19.50;;
950;SDS011;462;48.758;9.256;2022-12-10T21:16:21;32.73;;;24.30;;
950;SDS011;462;48.758;9.256;2022-12-10T21:24:26;40.30;;;24.30;;
950;SDS011;462;48.758;9.256;2022-12-10T21:32:28;26.83;;;17.70;;
950;SDS011;462;48.758;9.256;2022-12-10T21:40:32;24.93;;;17.73;;
950;SDS011;462;48.758;9.256;2022-12-10T21:48:35;25.83;;;18.43;;
950;SDS011;462;48.758;9.256;2022-12-10T21:56:38;23.00;;;18.17;;
950;SDS011;462;48.758;9.256;2022-12-10T22:04:41;24.60;;;17.63;;
950;SDS011;462;48.758;9.256;2022-12-10T22:12:45;27.50;;;20.00;;
950;SDS011;462;48.758;9.256;2022-12-10T22:20:53;25.07;;;19.20;;
950;SDS011;462;48.758;9.256;2022-12-10T22:28:58;25.53;;;17.37;;
950;SDS011;462;48.758;9.256;2022-12-10T22:37:01;21.10;;;16.37;;
950;SDS011;462;48.758;9.256;2022-12-10T22:45:06;23.23;;;16.50;;
950;SDS011;462;48.758;9.256;2022-12-10T22:53:09;21.97;;;14.93;;
950;SDS011;462;48.758;9.256;2022-12-10T23:01:16;25.87;;;18.40;;
950;SDS011;462;48.758;9.256;2022-12-10T23:09:20;21.23;;;15.77;;
950;SDS011;462;48.758;9.256;2022-12-10T23:17:24;22.37;;;16.60;;
950;SDS011;462;48.758;9.256;2022-12-10T23:25:26;23.10;;;17.77;;
950;SDS011;462;48.758;9.256;2022-12-10T23:33:30;20.30;;;15.53;;
950;SDS011;462;48.758;9.256;2022-12-10T23:41:33;25.10;;;17.40;;
950;SDS011;462;48.758;9.256;2022-12-10T23:49:37;22.23;;;16.60;;
950;SDS011;462;48.758;9.256;2022-12-10T23:57:39;23.80;;;16.73;;
